Flight Track Log - Related Links

Times and Time Zones

All times are in EDT time to prevent confusion due to time zone crossing. See the CPT7563 flight status page for this flight to view local times or setup timezone preferences in your user account.

Time Position Orientation Groundspeed Altitude Reporting Facility
EDT Latitude Longitude Course Direction KTS MPH feet Rate Location/Type
Fri 08:00:00 PM 48.2323 -100.8060 98° East  Level FlightAware Approximate
Fri 08:01:00 PM 48.2262 -100.7406 98° East  Level FlightAware Approximate
Fri 08:02:00 PM 48.2200 -100.6751 98° East  Level FlightAware Approximate
Fri 08:02:04 PM 48.2356 -100.8614 93° East 168 193 9,000  Level Minneapolis Center
Fri 08:03:00 PM 48.2138 -100.6097 98° East  Level FlightAware Approximate
Fri 08:03:06 PM 48.2303 -100.7836 96° East 171 197 9,000  Level Minneapolis Center
Fri 08:04:00 PM 48.2075 -100.5443 98° East  Level FlightAware Approximate
Fri 08:04:07 PM 48.2286 -100.7250 92° East 171 197 9,000  Level Minneapolis Center
Fri 08:05:00 PM 48.2012 -100.4789 98° East  Level FlightAware Approximate
Fri 08:06:00 PM 48.1980 -100.4130 93° East  Level FlightAware Approximate
Fri 08:06:36 PM 48.2181 -100.5336 95° East 170 196 8,900  Level Minneapolis Center
Fri 08:07:00 PM 48.1956 -100.3471 93° East  Level FlightAware Approximate
Fri 08:07:38 PM 48.2158 -100.4617 93° East 171 197 8,900  Level Minneapolis Center
Fri 08:08:39 PM 48.2125 -100.3894 94° East 173 199 8,900  Level Minneapolis Center
Fri 08:09:41 PM 48.2081 -100.3194 95° East 172 198 8,900  Level Minneapolis Center
Fri 08:10:43 PM 48.2039 -100.2503 95° East 170 196 8,900  Level Minneapolis Center
Fri 08:11:45 PM 48.1989 -100.1672 95° East 168 193 8,900  Level Minneapolis Center
Fri 08:12:47 PM 48.1947 -100.0989 95° East 167 192 8,900  Level Minneapolis Center
Fri 08:13:48 PM 48.1897 -100.0319 96° East 165 190 8,900  Level Minneapolis Center
Fri 08:14:50 PM 48.1853 -99.9633 96° East 165 190 8,900  Level Minneapolis Center
Fri 08:15:52 PM 48.1817 -99.8936 94° East 166 191 8,900  Level Minneapolis Center
Fri 08:16:54 PM 48.1769 -99.8244 96° East 167 192 8,900  Level Minneapolis Center
Fri 08:17:55 PM 48.1722 -99.7550 96° East 167 192 8,900 49 Level Minneapolis Center
Fri 08:18:57 PM 48.1683 -99.6722 94° East 167 192 9,000 145 Climbing Minneapolis Center
Fri 08:19:59 PM 48.1631 -99.6025 96° East 168 193 9,200 435 Climbing Minneapolis Center
Fri 08:21:01 PM 48.1611 -99.5397 93° East 161 185 9,900 634 Climbing Minneapolis Center
Fri 08:22:02 PM 48.1575 -99.4814 95° East 152 175 10,500 537 Climbing Minneapolis Center
Fri 08:23:04 PM 48.1525 -99.4336 99° East 148 170 11,000 242 Climbing Minneapolis Center
Fri 08:24:06 PM 48.1469 -99.3561 96° East 151 174 11,000  Level Minneapolis Center
Fri 08:25:08 PM 48.1408 -99.2872 98° East 158 182 11,000  Level Minneapolis Center
Fri 08:26:09 PM 48.1356 -99.2022 95° East 166 191 11,000  Level Minneapolis Center
Fri 08:27:11 PM 48.1331 -99.1469 94° East 167 192 11,000 48 Level Minneapolis Center
Fri 08:28:13 PM 48.1264 -99.0636 97° East 167 192 11,100 48 Climbing Minneapolis Center
Fri 08:29:15 PM 48.1217 -98.9939 96° East 169 194 11,100  Level Minneapolis Center
Fri 08:30:16 PM 48.1167 -98.9242 96° East 169 194 11,100  Level Minneapolis Center
Fri 08:31:18 PM 48.1111 -98.8531 97° East 170 196 11,100  Level Minneapolis Center
Fri 08:32:20 PM 48.1042 -98.7828 98° East 171 197 11,100  Level Minneapolis Center
Fri 08:33:22 PM 48.0958 -98.7006 99° East 169 194 11,100  Level Minneapolis Center
Fri 08:34:23 PM 48.0894 -98.6319 98° East 169 194 11,100  Level Minneapolis Center
Fri 08:35:37 PM 48.0833 -98.5625 97° East 168 193 11,100  Level Minneapolis Center
Fri 08:36:39 PM 48.0758 -98.4794 98° East 168 193 11,100 48 Level Minneapolis Center
Fri 08:37:41 PM 48.0697 -98.4114 98° East 167 192 11,200 71 Climbing Minneapolis Center
Fri 08:38:04 PM 48.0678 -98.3803 95° East 168 193 11,200 -290 Level Minneapolis Center
Fri 08:38:43 PM 48.0622 -98.3408 102° East 168 193 10,900 -590 Descending Minneapolis Center
Fri 08:39:05 PM 48.0586 -98.3036 98° East 173 199 10,600 -677 Descending Minneapolis Center
Fri 08:39:45 PM 48.0547 -98.2683 99° East 171 197 10,200 -647 Descending Minneapolis Center
Fri 08:40:47 PM 48.0464 -98.1814 98° East 175 201 9,500 -732 Descending Minneapolis Center
Fri 08:41:48 PM 48.0408 -98.1083 96° East 176 203 8,700 -667 Descending Minneapolis Center
Fri 08:43:02 PM 48.0350 -98.0383 97° East 174 200 8,000 -662 Descending Minneapolis Center
Fri 08:44:04 PM 48.0269 -97.9550 98° East 171 197 7,200 -677 Descending Minneapolis Center
Fri 08:45:06 PM 48.0189 -97.8878 100° East 168 193 6,600 -605 Descending Minneapolis Center
Fri 08:46:03 PM 48.0128 -97.8206 98° East 160 184 6,000 -643 Descending Minneapolis Center
Fri 08:46:58 PM 48.0067 -97.7622 99° East 153 176 5,400 -678 Descending Minneapolis Center
Fri 08:47:58 PM 48.0008 -97.7039 98° East 149 171 4,700 -626 Descending Minneapolis Center
Fri 08:48:53 PM 47.9950 -97.6486 99° East 144 166 4,200 -640 Descending Minneapolis Center
Fri 08:49:13 PM 47.9928 -97.6300 100° East 147 169 3,900 -700 Descending Minneapolis Center
Fri 08:49:53 PM 47.9889 -97.5903 98° East 141 162 3,500 -581 Descending Minneapolis Center
Fri 08:50:15 PM 47.9867 -97.5728 101° East 143 165 3,300 -492 Descending Minneapolis Center
Fri 08:50:54 PM 47.9825 -97.5289 98° East 143 165 3,000 -387 Descending Minneapolis Center
Fri 08:51:17 PM 47.9814 -97.5147 97° East 142 163 2,900  Descending Minneapolis Center
Fri 08:52:01 PM 47.9783 -97.4703 96° East 140 161 3,000 97 Climbing Minneapolis Center
Fri 08:52:19 PM 47.9756 -97.4581 109° East 141 162 3,000  Level Minneapolis Center
Fri 08:53:01 PM 47.9722 -97.4122 96° East 138 159 3,000 -97 Level Minneapolis Center
Fri 08:53:21 PM 47.9706 -97.4011 103° East 139 160 2,900 -492 Descending Minneapolis Center
Fri 08:54:02 PM 47.9661 -97.3539 98° East 140 161 2,500 -590 Descending Minneapolis Center
Fri 08:54:22 PM 47.9642 -97.3442 107° East 139 160 2,300 -700 Descending Minneapolis Center
Fri 08:55:02 PM 47.9636 -97.2919 91° East 143 165 1,800 -774 Descending Minneapolis Center
Fri 08:55:24 PM 47.9611 -97.2728 101° East 141 162 1,500 -98 Descending Minneapolis Center
Fri 08:56:03 PM 47.9597 -97.2364 93° East 141 162 1,700 97 Climbing Minneapolis Center
Fri 08:56:26 PM 47.9589 -97.2153 93° East 141 162 1,600 -424 Descending Minneapolis Center
Fri 08:57:28 PM 47.9631 -97.1850 78° East 116 133 1,100 -484 Descending Minneapolis Center

Login

Don't have an account? Register now (free) for customized features, flight alerts, and more!